sensor_id;sensor_type;location;lat;lon;timestamp;temperature;humidity
4922;DHT22;16625;53.624;10.106;2022-08-18T00:00:26;18.20;99.90
4922;DHT22;16625;53.624;10.106;2022-08-18T00:02:59;19.20;99.90
4922;DHT22;16625;53.624;10.106;2022-08-18T00:05:27;17.20;99.90
4922;DHT22;16625;53.624;10.106;2022-08-18T00:07:54;18.10;99.90
4922;DHT22;16625;53.624;10.106;2022-08-18T00:10:24;19.70;99.90
4922;DHT22;16625;53.624;10.106;2022-08-18T00:12:51;18.20;99.90
4922;DHT22;16625;53.624;10.106;2022-08-18T00:15:19;18.30;99.90
4922;DHT22;16625;53.624;10.106;2022-08-18T00:17:46;16.50;99.90
4922;DHT22;16625;53.624;10.106;2022-08-18T00:20:20;20.20;99.90
4922;DHT22;16625;53.624;10.106;2022-08-18T00:22:48;20.80;99.90
4922;DHT22;16625;53.624;10.106;2022-08-18T00:25:17;18.10;99.90
4922;DHT22;16625;53.624;10.106;2022-08-18T00:27:45;18.60;99.90
4922;DHT22;16625;53.624;10.106;2022-08-18T00:30:14;17.30;99.90
4922;DHT22;16625;53.624;10.106;2022-08-18T00:32:45;19.40;99.90
4922;DHT22;16625;53.624;10.106;2022-08-18T00:35:15;18.60;99.90
4922;DHT22;16625;53.624;10.106;2022-08-18T00:37:47;21.30;99.90
4922;DHT22;16625;53.624;10.106;2022-08-18T00:40:19;18.70;99.90
4922;DHT22;16625;53.624;10.106;2022-08-18T00:42:49;18.20;99.90
4922;DHT22;16625;53.624;10.106;2022-08-18T00:45:19;18.90;99.90
4922;DHT22;16625;53.624;10.106;2022-08-18T00:47:47;18.40;99.90
4922;DHT22;16625;53.624;10.106;2022-08-18T00:50:17;16.40;99.90
4922;DHT22;16625;53.624;10.106;2022-08-18T00:52:51;18.30;99.90
4922;DHT22;16625;53.624;10.106;2022-08-18T00:55:21;20.50;99.90
4922;DHT22;16625;53.624;10.106;2022-08-18T00:57:51;19.70;99.90
4922;DHT22;16625;53.624;10.106;2022-08-18T01:00:20;18.10;99.90
4922;DHT22;16625;53.624;10.106;2022-08-18T01:02:53;18.20;99.90
4922;DHT22;16625;53.624;10.106;2022-08-18T01:05:25;19.50;99.90
4922;DHT22;16625;53.624;10.106;2022-08-18T01:07:57;18.20;99.90
4922;DHT22;16625;53.624;10.106;2022-08-18T01:10:25;18.60;99.90
4922;DHT22;16625;53.624;10.106;2022-08-18T01:12:55;19.40;99.90
4922;DHT22;16625;53.624;10.106;2022-08-18T01:15:24;20.80;99.90
4922;DHT22;16625;53.624;10.106;2022-08-18T01:17:53;18.10;99.90
4922;DHT22;16625;53.624;10.106;2022-08-18T01:20:40;18.10;99.90
4922;DHT22;16625;53.624;10.106;2022-08-18T01:23:29;19.50;99.90
4922;DHT22;16625;53.624;10.106;2022-08-18T01:25:57;19.30;99.90
4922;DHT22;16625;53.624;10.106;2022-08-18T01:28:30;20.20;99.90
4922;DHT22;16625;53.624;10.106;2022-08-18T01:30:59;17.20;99.90
4922;DHT22;16625;53.624;10.106;2022-08-18T01:33:29;16.40;99.90
4922;DHT22;16625;53.624;10.106;2022-08-18T01:35:58;17.60;99.90
4922;DHT22;16625;53.624;10.106;2022-08-18T01:38:28;19.50;99.90
4922;DHT22;16625;53.624;10.106;2022-08-18T01:40:56;17.90;99.90
4922;DHT22;16625;53.624;10.106;2022-08-18T01:43:25;19.70;99.90
4922;DHT22;16625;53.624;10.106;2022-08-18T01:45:52;17.00;99.90
4922;DHT22;16625;53.624;10.106;2022-08-18T01:48:24;20.50;99.90
4922;DHT22;16625;53.624;10.106;2022-08-18T01:50:51;15.50;99.90
4922;DHT22;16625;53.624;10.106;2022-08-18T01:53:20;15.20;99.90
4922;DHT22;16625;53.624;10.106;2022-08-18T01:55:48;16.10;99.90
4922;DHT22;16625;53.624;10.106;2022-08-18T01:58:15;16.30;99.90
4922;DHT22;16625;53.624;10.106;2022-08-18T02:00:42;17.00;99.90
4922;DHT22;16625;53.624;10.106;2022-08-18T02:03:12;17.50;99.90
4922;DHT22;16625;53.624;10.106;2022-08-18T02:05:44;19.00;99.90
4922;DHT22;16625;53.624;10.106;2022-08-18T02:08:16;17.60;99.90
4922;DHT22;16625;53.624;10.106;2022-08-18T02:19:55;17.50;99.90
4922;DHT22;16625;53.624;10.106;2022-08-18T02:22:29;17.60;99.90
4922;DHT22;16625;53.624;10.106;2022-08-18T02:24:57;16.50;99.90
4922;DHT22;16625;53.624;10.106;2022-08-18T02:27:27;19.40;99.90
4922;DHT22;16625;53.624;10.106;2022-08-18T02:30:10;18.50;99.90
4922;DHT22;16625;53.624;10.106;2022-08-18T02:32:53;16.20;99.90
4922;DHT22;16625;53.624;10.106;2022-08-18T02:35:23;20.20;99.90
4922;DHT22;16625;53.624;10.106;2022-08-18T02:38:06;18.20;99.90
4922;DHT22;16625;53.624;10.106;2022-08-18T02:40:37;16.70;99.90
4922;DHT22;16625;53.624;10.106;2022-08-18T02:43:06;17.30;99.90
4922;DHT22;16625;53.624;10.106;2022-08-18T02:45:36;16.80;99.90
4922;DHT22;16625;53.624;10.106;2022-08-18T02:48:19;18.80;99.90
4922;DHT22;16625;53.624;10.106;2022-08-18T02:54:19;17.10;99.90
4922;DHT22;16625;53.624;10.106;2022-08-18T02:57:06;17.90;99.90
4922;DHT22;16625;53.624;10.106;2022-08-18T02:59:37;15.50;99.90
4922;DHT22;16625;53.624;10.106;2022-08-18T03:02:19;17.90;99.90
4922;DHT22;16625;53.624;10.106;2022-08-18T03:04:54;16.20;99.90
4922;DHT22;16625;53.624;10.106;2022-08-18T03:07:31;17.20;99.90
4922;DHT22;16625;53.624;10.106;2022-08-18T03:10:35;17.50;99.90
4922;DHT22;16625;53.624;10.106;2022-08-18T03:13:18;17.30;99.90
4922;DHT22;16625;53.624;10.106;2022-08-18T03:16:13;16.70;99.90
4922;DHT22;16625;53.624;10.106;2022-08-18T03:18:52;17.40;99.90
4922;DHT22;16625;53.624;10.106;2022-08-18T03:21:36;18.40;99.90
4922;DHT22;16625;53.624;10.106;2022-08-18T03:24:18;14.70;99.90
4922;DHT22;16625;53.624;10.106;2022-08-18T03:30:15;16.30;99.90
4922;DHT22;16625;53.624;10.106;2022-08-18T03:32:56;17.00;99.90
4922;DHT22;16625;53.624;10.106;2022-08-18T03:35:24;18.00;99.90
4922;DHT22;16625;53.624;10.106;2022-08-18T03:37:58;18.10;99.90
4922;DHT22;16625;53.624;10.106;2022-08-18T03:40:39;17.60;99.90
4922;DHT22;16625;53.624;10.106;2022-08-18T03:43:12;17.80;99.90
4922;DHT22;16625;53.624;10.106;2022-08-18T03:45:54;16.40;99.90
4922;DHT22;16625;53.624;10.106;2022-08-18T03:48:41;19.30;99.90
4922;DHT22;16625;53.624;10.106;2022-08-18T03:51:15;17.00;99.90
4922;DHT22;16625;53.624;10.106;2022-08-18T03:53:56;18.90;99.90
4922;DHT22;16625;53.624;10.106;2022-08-18T03:56:35;17.40;99.90
4922;DHT22;16625;53.624;10.106;2022-08-18T03:59:20;19.50;99.90
4922;DHT22;16625;53.624;10.106;2022-08-18T04:02:02;18.90;99.90
4922;DHT22;16625;53.624;10.106;2022-08-18T04:04:43;15.60;99.90
4922;DHT22;16625;53.624;10.106;2022-08-18T04:07:11;17.10;99.90
4922;DHT22;16625;53.624;10.106;2022-08-18T04:09:44;18.80;99.90
4922;DHT22;16625;53.624;10.106;2022-08-18T04:12:15;17.00;99.90
4922;DHT22;16625;53.624;10.106;2022-08-18T04:14:45;17.10;99.90
4922;DHT22;16625;53.624;10.106;2022-08-18T04:17:18;16.30;99.90
4922;DHT22;16625;53.624;10.106;2022-08-18T04:20:00;15.90;99.90
4922;DHT22;16625;53.624;10.106;2022-08-18T04:22:28;19.50;99.90
4922;DHT22;16625;53.624;10.106;2022-08-18T04:24:59;15.70;99.90
4922;DHT22;16625;53.624;10.106;2022-08-18T04:27:41;16.40;99.90
4922;DHT22;16625;53.624;10.106;2022-08-18T04:30:23;17.10;99.90
4922;DHT22;16625;53.624;10.106;2022-08-18T04:36:17;17.80;99.90
4922;DHT22;16625;53.624;10.106;2022-08-18T04:38:58;17.60;99.90
4922;DHT22;16625;53.624;10.106;2022-08-18T04:41:27;17.60;99.90
4922;DHT22;16625;53.624;10.106;2022-08-18T04:44:09;17.60;99.90
4922;DHT22;16625;53.624;10.106;2022-08-18T04:46:53;17.40;99.90
4922;DHT22;16625;53.624;10.106;2022-08-18T05:11:40;18.30;99.90
4922;DHT22;16625;53.624;10.106;2022-08-18T05:14:10;18.40;99.90
4922;DHT22;16625;53.624;10.106;2022-08-18T05:16:52;20.40;99.90
4922;DHT22;16625;53.624;10.106;2022-08-18T05:19:36;16.80;99.90
4922;DHT22;16625;53.624;10.106;2022-08-18T05:22:10;20.30;99.90
4922;DHT22;16625;53.624;10.106;2022-08-18T05:24:43;19.90;99.90
4922;DHT22;16625;53.624;10.106;2022-08-18T05:27:43;18.60;99.90
4922;DHT22;16625;53.624;10.106;2022-08-18T05:30:26;19.40;99.90
4922;DHT22;16625;53.624;10.106;2022-08-18T05:33:04;18.80;99.90
4922;DHT22;16625;53.624;10.106;2022-08-18T05:35:49;17.10;99.90
4922;DHT22;16625;53.624;10.106;2022-08-18T05:38:39;17.90;99.90
4922;DHT22;16625;53.624;10.106;2022-08-18T05:41:10;18.90;99.90
4922;DHT22;16625;53.624;10.106;2022-08-18T05:43:39;19.20;99.90
4922;DHT22;16625;53.624;10.106;2022-08-18T05:46:09;19.10;99.90
4922;DHT22;16625;53.624;10.106;2022-08-18T05:48:36;19.20;99.90
4922;DHT22;16625;53.624;10.106;2022-08-18T05:51:11;19.30;99.90
4922;DHT22;16625;53.624;10.106;2022-08-18T05:53:40;19.40;99.90
4922;DHT22;16625;53.624;10.106;2022-08-18T05:56:29;20.60;99.90
4922;DHT22;16625;53.624;10.106;2022-08-18T05:59:17;19.40;99.90
4922;DHT22;16625;53.624;10.106;2022-08-18T06:01:50;19.40;99.90
4922;DHT22;16625;53.624;10.106;2022-08-18T06:04:25;19.40;99.90
4922;DHT22;16625;53.624;10.106;2022-08-18T06:06:55;20.40;99.90
4922;DHT22;16625;53.624;10.106;2022-08-18T06:09:26;19.50;99.90
4922;DHT22;16625;53.624;10.106;2022-08-18T06:12:01;19.50;99.90
4922;DHT22;16625;53.624;10.106;2022-08-18T06:14:30;19.40;99.90
4922;DHT22;16625;53.624;10.106;2022-08-18T06:17:01;19.40;99.90
4922;DHT22;16625;53.624;10.106;2022-08-18T06:19:40;19.30;99.90
4922;DHT22;16625;53.624;10.106;2022-08-18T06:22:20;19.90;99.90
4922;DHT22;16625;53.624;10.106;2022-08-18T06:24:58;19.10;99.90
4922;DHT22;16625;53.624;10.106;2022-08-18T06:27:35;19.30;99.90
4922;DHT22;16625;53.624;10.106;2022-08-18T06:30:09;19.30;99.90
4922;DHT22;16625;53.624;10.106;2022-08-18T06:32:53;19.30;99.90
4922;DHT22;16625;53.624;10.106;2022-08-18T06:35:29;19.30;99.90
4922;DHT22;16625;53.624;10.106;2022-08-18T06:38:07;19.30;99.90
4922;DHT22;16625;53.624;10.106;2022-08-18T06:41:00;19.30;99.90
4922;DHT22;16625;53.624;10.106;2022-08-18T06:43:28;19.40;99.90
4922;DHT22;16625;53.624;10.106;2022-08-18T06:45:58;19.40;99.90
4922;DHT22;16625;53.624;10.106;2022-08-18T06:48:32;19.50;99.90
4922;DHT22;16625;53.624;10.106;2022-08-18T06:51:06;21.30;99.90
4922;DHT22;16625;53.624;10.106;2022-08-18T06:53:51;19.50;99.90
4922;DHT22;16625;53.624;10.106;2022-08-18T06:56:21;19.60;99.90
4922;DHT22;16625;53.624;10.106;2022-08-18T06:58:48;19.60;99.90
4922;DHT22;16625;53.624;10.106;2022-08-18T07:01:19;19.70;99.90
4922;DHT22;16625;53.624;10.106;2022-08-18T07:03:49;19.80;99.90
4922;DHT22;16625;53.624;10.106;2022-08-18T07:06:29;19.90;99.90
4922;DHT22;16625;53.624;10.106;2022-08-18T07:09:18;20.10;99.90
4922;DHT22;16625;53.624;10.106;2022-08-18T07:12:02;20.30;99.90
4922;DHT22;16625;53.624;10.106;2022-08-18T07:14:30;20.50;99.90
4922;DHT22;16625;53.624;10.106;2022-08-18T07:17:10;20.70;99.90
4922;DHT22;16625;53.624;10.106;2022-08-18T07:19:37;21.10;99.90
4922;DHT22;16625;53.624;10.106;2022-08-18T07:22:06;21.30;99.90
4922;DHT22;16625;53.624;10.106;2022-08-18T07:43:25;21.70;99.90
4922;DHT22;16625;53.624;10.106;2022-08-18T07:46:17;23.80;99.90
4922;DHT22;16625;53.624;10.106;2022-08-18T07:48:50;20.10;99.90
4922;DHT22;16625;53.624;10.106;2022-08-18T07:51:22;21.70;99.90
4922;DHT22;16625;53.624;10.106;2022-08-18T07:53:55;23.20;99.90
4922;DHT22;16625;53.624;10.106;2022-08-18T07:56:33;20.90;99.90
4922;DHT22;16625;53.624;10.106;2022-08-18T08:02:37;20.70;99.90
4922;DHT22;16625;53.624;10.106;2022-08-18T08:05:41;18.70;99.90
4922;DHT22;16625;53.624;10.106;2022-08-18T09:46:11;23.40;99.90
4922;DHT22;16625;53.624;10.106;2022-08-18T09:48:49;21.90;99.90
4922;DHT22;16625;53.624;10.106;2022-08-18T09:58:54;23.50;24.90
4922;DHT22;16625;53.624;10.106;2022-08-18T10:05:33;23.60;1.00
4922;DHT22;16625;53.624;10.106;2022-08-18T10:11:51;24.00;99.30
4922;DHT22;16625;53.624;10.106;2022-08-18T11:42:40;24.70;1.00
4922;DHT22;16625;53.624;10.106;2022-08-18T11:45:48;23.70;99.90
4922;DHT22;16625;53.624;10.106;2022-08-18T11:48:45;25.10;99.90
4922;DHT22;16625;53.624;10.106;2022-08-18T11:51:19;25.70;99.90
4922;DHT22;16625;53.624;10.106;2022-08-18T11:53:57;25.10;39.30
4922;DHT22;16625;53.624;10.106;2022-08-18T11:56:31;25.20;1.00
4922;DHT22;16625;53.624;10.106;2022-08-18T11:59:30;24.30;99.90
4922;DHT22;16625;53.624;10.106;2022-08-18T12:02:16;25.70;99.90
4922;DHT22;16625;53.624;10.106;2022-08-18T12:04:49;25.90;99.90
4922;DHT22;16625;53.624;10.106;2022-08-18T12:07:29;26.50;1.00
4922;DHT22;16625;53.624;10.106;2022-08-18T12:10:20;25.60;1.00
4922;DHT22;16625;53.624;10.106;2022-08-18T12:15:43;25.50;99.90
4922;DHT22;16625;53.624;10.106;2022-08-18T12:18:20;23.90;99.90
4922;DHT22;16625;53.624;10.106;2022-08-18T12:21:04;25.10;99.90
4922;DHT22;16625;53.624;10.106;2022-08-18T12:23:50;26.30;99.90
4922;DHT22;16625;53.624;10.106;2022-08-18T12:26:22;25.40;99.90
4922;DHT22;16625;53.624;10.106;2022-08-18T12:29:06;25.10;71.30
4922;DHT22;16625;53.624;10.106;2022-08-18T12:31:56;24.60;1.00
4922;DHT22;16625;53.624;10.106;2022-08-18T12:34:24;27.60;1.00
4922;DHT22;16625;53.624;10.106;2022-08-18T12:37:08;25.80;1.00
4922;DHT22;16625;53.624;10.106;2022-08-18T12:39:46;25.90;1.00
4922;DHT22;16625;53.624;10.106;2022-08-18T12:42:36;25.40;1.00
4922;DHT22;16625;53.624;10.106;2022-08-18T12:45:06;26.20;99.90
4922;DHT22;16625;53.624;10.106;2022-08-18T12:47:47;26.20;99.90
4922;DHT22;16625;53.624;10.106;2022-08-18T12:50:15;25.20;99.90
4922;DHT22;16625;53.624;10.106;2022-08-18T12:52:47;26.30;99.90
4922;DHT22;16625;53.624;10.106;2022-08-18T12:55:17;28.00;1.00
4922;DHT22;16625;53.624;10.106;2022-08-18T12:57:49;26.10;99.90
4922;DHT22;16625;53.624;10.106;2022-08-18T13:00:17;25.70;99.90
4922;DHT22;16625;53.624;10.106;2022-08-18T13:02:55;25.60;99.90
4922;DHT22;16625;53.624;10.106;2022-08-18T13:05:34;25.40;99.90
4922;DHT22;16625;53.624;10.106;2022-08-18T13:08:03;25.90;99.90
4922;DHT22;16625;53.624;10.106;2022-08-18T13:11:02;26.10;99.90
4922;DHT22;16625;53.624;10.106;2022-08-18T13:13:39;24.70;99.90
4922;DHT22;16625;53.624;10.106;2022-08-18T13:16:24;26.10;99.90
4922;DHT22;16625;53.624;10.106;2022-08-18T13:19:02;26.60;99.90
4922;DHT22;16625;53.624;10.106;2022-08-18T13:21:52;25.50;98.20
4922;DHT22;16625;53.624;10.106;2022-08-18T13:24:22;26.60;65.90
4922;DHT22;16625;53.624;10.106;2022-08-18T13:26:52;26.60;1.00
4922;DHT22;16625;53.624;10.106;2022-08-18T13:29:58;26.90;99.90
4922;DHT22;16625;53.624;10.106;2022-08-18T13:32:44;25.90;1.00
4922;DHT22;16625;53.624;10.106;2022-08-18T13:35:25;28.50;75.60
4922;DHT22;16625;53.624;10.106;2022-08-18T13:38:08;26.90;25.30
4922;DHT22;16625;53.624;10.106;2022-08-18T13:40:59;27.40;1.00
4922;DHT22;16625;53.624;10.106;2022-08-18T13:43:37;27.20;1.00
4922;DHT22;16625;53.624;10.106;2022-08-18T13:46:28;26.10;1.00
4922;DHT22;16625;53.624;10.106;2022-08-18T13:52:27;26.90;1.00
4922;DHT22;16625;53.624;10.106;2022-08-18T14:00:59;27.90;1.00
4922;DHT22;16625;53.624;10.106;2022-08-18T14:03:44;27.70;1.00
4922;DHT22;16625;53.624;10.106;2022-08-18T14:06:23;27.90;1.00
4922;DHT22;16625;53.624;10.106;2022-08-18T14:08:58;28.10;1.00
4922;DHT22;16625;53.624;10.106;2022-08-18T14:12:28;27.90;1.00
4922;DHT22;16625;53.624;10.106;2022-08-18T14:15:01;28.20;1.00
4922;DHT22;16625;53.624;10.106;2022-08-18T14:17:36;27.90;1.00
4922;DHT22;16625;53.624;10.106;2022-08-18T14:20:20;28.30;1.00
4922;DHT22;16625;53.624;10.106;2022-08-18T14:23:24;27.90;1.00
4922;DHT22;16625;53.624;10.106;2022-08-18T14:26:11;28.90;1.00
4922;DHT22;16625;53.624;10.106;2022-08-18T14:28:58;26.70;1.00
4922;DHT22;16625;53.624;10.106;2022-08-18T14:31:48;27.30;1.00
4922;DHT22;16625;53.624;10.106;2022-08-18T14:34:22;28.00;1.00
4922;DHT22;16625;53.624;10.106;2022-08-18T14:36:51;26.90;1.00
4922;DHT22;16625;53.624;10.106;2022-08-18T14:39:27;27.90;1.00
4922;DHT22;16625;53.624;10.106;2022-08-18T14:41:58;26.00;1.00
4922;DHT22;16625;53.624;10.106;2022-08-18T14:44:29;25.50;1.00
4922;DHT22;16625;53.624;10.106;2022-08-18T14:47:15;26.10;3.60
4922;DHT22;16625;53.624;10.106;2022-08-18T14:49:48;27.00;1.00
4922;DHT22;16625;53.624;10.106;2022-08-18T14:52:29;28.10;17.40
4922;DHT22;16625;53.624;10.106;2022-08-18T14:55:11;27.10;10.60
4922;DHT22;16625;53.624;10.106;2022-08-18T14:58:09;27.30;1.00
4922;DHT22;16625;53.624;10.106;2022-08-18T15:01:10;26.90;1.00
4922;DHT22;16625;53.624;10.106;2022-08-18T15:07:05;25.80;31.50
4922;DHT22;16625;53.624;10.106;2022-08-18T15:12:26;26.20;99.90
4922;DHT22;16625;53.624;10.106;2022-08-18T15:15:17;25.20;99.90
4922;DHT22;16625;53.624;10.106;2022-08-18T15:20:44;25.60;99.90
4922;DHT22;16625;53.624;10.106;2022-08-18T15:24:01;25.70;99.90
4922;DHT22;16625;53.624;10.106;2022-08-18T15:26:39;26.20;99.90
4922;DHT22;16625;53.624;10.106;2022-08-18T15:31:43;26.40;85.40
4922;DHT22;16625;53.624;10.106;2022-08-18T15:34:13;26.30;70.80
4922;DHT22;16625;53.624;10.106;2022-08-18T15:36:43;26.90;99.90
4922;DHT22;16625;53.624;10.106;2022-08-18T15:39:18;26.70;67.70
4922;DHT22;16625;53.624;10.106;2022-08-18T15:41:46;28.20;99.90
4922;DHT22;16625;53.624;10.106;2022-08-18T15:44:21;25.90;99.90
4922;DHT22;16625;53.624;10.106;2022-08-18T15:46:51;25.90;99.90
4922;DHT22;16625;53.624;10.106;2022-08-18T15:49:21;25.80;99.90
4922;DHT22;16625;53.624;10.106;2022-08-18T15:55:22;24.10;99.90
4922;DHT22;16625;53.624;10.106;2022-08-18T15:58:04;27.20;99.90
4922;DHT22;16625;53.624;10.106;2022-08-18T16:00:47;25.10;99.90
4922;DHT22;16625;53.624;10.106;2022-08-18T16:03:17;25.30;99.90
4922;DHT22;16625;53.624;10.106;2022-08-18T16:05:51;25.40;99.90
4922;DHT22;16625;53.624;10.106;2022-08-18T16:08:24;25.30;99.90
4922;DHT22;16625;53.624;10.106;2022-08-18T16:14:12;25.60;99.90
4922;DHT22;16625;53.624;10.106;2022-08-18T16:16:40;26.60;99.90
4922;DHT22;16625;53.624;10.106;2022-08-18T16:19:07;25.40;99.90
4922;DHT22;16625;53.624;10.106;2022-08-18T16:21:35;24.20;99.90
4922;DHT22;16625;53.624;10.106;2022-08-18T16:24:05;25.20;99.90
4922;DHT22;16625;53.624;10.106;2022-08-18T16:26:33;25.40;99.90
4922;DHT22;16625;53.624;10.106;2022-08-18T16:29:11;27.00;99.90
4922;DHT22;16625;53.624;10.106;2022-08-18T16:31:42;26.00;90.30
4922;DHT22;16625;53.624;10.106;2022-08-18T16:34:22;24.90;99.90
4922;DHT22;16625;53.624;10.106;2022-08-18T16:37:19;25.80;72.40
4922;DHT22;16625;53.624;10.106;2022-08-18T16:40:29;27.30;71.30
4922;DHT22;16625;53.624;10.106;2022-08-18T16:43:42;28.20;1.00
4922;DHT22;16625;53.624;10.106;2022-08-18T16:50:25;28.70;1.00
4922;DHT22;16625;53.624;10.106;2022-08-18T16:56:25;27.90;1.00
4922;DHT22;16625;53.624;10.106;2022-08-18T16:59:48;27.50;1.00
4922;DHT22;16625;53.624;10.106;2022-08-18T17:03:22;28.00;1.00
4922;DHT22;16625;53.624;10.106;2022-08-18T17:06:26;26.80;1.00
4922;DHT22;16625;53.624;10.106;2022-08-18T17:09:10;28.00;1.00
4922;DHT22;16625;53.624;10.106;2022-08-18T17:11:38;28.40;1.00
4922;DHT22;16625;53.624;10.106;2022-08-18T17:14:07;26.40;1.00
4922;DHT22;16625;53.624;10.106;2022-08-18T17:16:37;23.90;73.00
4922;DHT22;16625;53.624;10.106;2022-08-18T17:19:19;26.50;99.90
4922;DHT22;16625;53.624;10.106;2022-08-18T17:21:56;25.70;99.90
4922;DHT22;16625;53.624;10.106;2022-08-18T17:24:45;23.80;1.00
4922;DHT22;16625;53.624;10.106;2022-08-18T17:27:34;22.90;99.90
4922;DHT22;16625;53.624;10.106;2022-08-18T17:30:30;23.30;99.90
4922;DHT22;16625;53.624;10.106;2022-08-18T17:33:20;23.00;1.00
4922;DHT22;16625;53.624;10.106;2022-08-18T17:36:03;23.90;1.00
4922;DHT22;16625;53.624;10.106;2022-08-18T17:54:58;22.40;99.90
4922;DHT22;16625;53.624;10.106;2022-08-18T17:57:31;23.40;99.90
4922;DHT22;16625;53.624;10.106;2022-08-18T18:00:03;23.30;1.00
4922;DHT22;16625;53.624;10.106;2022-08-18T18:02:32;23.40;18.80
4922;DHT22;16625;53.624;10.106;2022-08-18T18:05:01;23.10;99.90
4922;DHT22;16625;53.624;10.106;2022-08-18T18:07:34;22.60;1.00
4922;DHT22;16625;53.624;10.106;2022-08-18T18:10:07;22.50;1.00
4922;DHT22;16625;53.624;10.106;2022-08-18T18:12:36;22.40;99.90
4922;DHT22;16625;53.624;10.106;2022-08-18T18:15:07;22.20;99.90
4922;DHT22;16625;53.624;10.106;2022-08-18T18:17:38;22.00;99.90
4922;DHT22;16625;53.624;10.106;2022-08-18T18:20:15;22.00;99.90
4922;DHT22;16625;53.624;10.106;2022-08-18T18:22:48;21.80;99.90
4922;DHT22;16625;53.624;10.106;2022-08-18T18:25:30;21.70;99.90
4922;DHT22;16625;53.624;10.106;2022-08-18T18:27:57;21.90;99.90
4922;DHT22;16625;53.624;10.106;2022-08-18T18:30:26;21.60;99.90
4922;DHT22;16625;53.624;10.106;2022-08-18T18:32:57;21.50;99.90
4922;DHT22;16625;53.624;10.106;2022-08-18T18:35:26;22.40;99.90
4922;DHT22;16625;53.624;10.106;2022-08-18T18:38:02;21.30;99.90
4922;DHT22;16625;53.624;10.106;2022-08-18T18:40:34;21.20;99.90
4922;DHT22;16625;53.624;10.106;2022-08-18T18:43:21;21.10;99.90
4922;DHT22;16625;53.624;10.106;2022-08-18T18:46:06;21.00;99.90
4922;DHT22;16625;53.624;10.106;2022-08-18T18:48:40;20.80;99.90
4922;DHT22;16625;53.624;10.106;2022-08-18T18:51:14;21.40;99.90
4922;DHT22;16625;53.624;10.106;2022-08-18T18:53:51;21.30;99.90
4922;DHT22;16625;53.624;10.106;2022-08-18T18:56:28;20.70;99.90
4922;DHT22;16625;53.624;10.106;2022-08-18T18:59:02;20.70;99.90
4922;DHT22;16625;53.624;10.106;2022-08-18T19:01:37;21.60;99.90
4922;DHT22;16625;53.624;10.106;2022-08-18T19:04:13;20.50;99.90
4922;DHT22;16625;53.624;10.106;2022-08-18T19:06:49;20.50;99.90
4922;DHT22;16625;53.624;10.106;2022-08-18T19:09:22;20.50;99.90
4922;DHT22;16625;53.624;10.106;2022-08-18T19:12:11;20.50;99.90
4922;DHT22;16625;53.624;10.106;2022-08-18T19:14:45;20.40;99.90
4922;DHT22;16625;53.624;10.106;2022-08-18T19:17:19;20.40;99.90
4922;DHT22;16625;53.624;10.106;2022-08-18T19:19:52;20.30;99.90
4922;DHT22;16625;53.624;10.106;2022-08-18T19:22:23;20.20;99.90
4922;DHT22;16625;53.624;10.106;2022-08-18T19:24:57;20.00;99.90
4922;DHT22;16625;53.624;10.106;2022-08-18T19:27:32;22.70;99.90
4922;DHT22;16625;53.624;10.106;2022-08-18T19:30:08;20.10;99.90
4922;DHT22;16625;53.624;10.106;2022-08-18T19:32:40;20.00;99.90
4922;DHT22;16625;53.624;10.106;2022-08-18T19:35:12;19.90;99.90
4922;DHT22;16625;53.624;10.106;2022-08-18T19:37:57;21.10;99.90
4922;DHT22;16625;53.624;10.106;2022-08-18T19:40:30;20.10;99.90
4922;DHT22;16625;53.624;10.106;2022-08-18T19:43:05;20.50;99.90
4922;DHT22;16625;53.624;10.106;2022-08-18T19:45:43;18.60;99.90
4922;DHT22;16625;53.624;10.106;2022-08-18T19:48:17;20.00;99.90
4922;DHT22;16625;53.624;10.106;2022-08-18T19:50:50;20.70;99.90
4922;DHT22;16625;53.624;10.106;2022-08-18T19:53:43;19.30;99.90
4922;DHT22;16625;53.624;10.106;2022-08-18T19:56:35;17.90;99.90
4922;DHT22;16625;53.624;10.106;2022-08-18T19:59:16;19.60;99.90
4922;DHT22;16625;53.624;10.106;2022-08-18T20:02:00;20.50;99.90
4922;DHT22;16625;53.624;10.106;2022-08-18T20:04:43;19.00;99.90
4922;DHT22;16625;53.624;10.106;2022-08-18T20:10:45;20.90;99.90
4922;DHT22;16625;53.624;10.106;2022-08-18T20:13:28;21.10;99.90
4922;DHT22;16625;53.624;10.106;2022-08-18T20:16:24;17.70;99.90
4922;DHT22;16625;53.624;10.106;2022-08-18T20:18:54;19.50;99.90
4922;DHT22;16625;53.624;10.106;2022-08-18T20:24:37;19.10;99.90
4922;DHT22;16625;53.624;10.106;2022-08-18T20:27:20;19.30;99.90
4922;DHT22;16625;53.624;10.106;2022-08-18T20:33:32;20.30;99.90
4922;DHT22;16625;53.624;10.106;2022-08-18T20:38:53;18.90;99.90
4922;DHT22;16625;53.624;10.106;2022-08-18T20:41:30;20.70;99.90
4922;DHT22;16625;53.624;10.106;2022-08-18T20:47:30;18.90;99.90
4922;DHT22;16625;53.624;10.106;2022-08-18T20:50:30;18.80;99.90
4922;DHT22;16625;53.624;10.106;2022-08-18T20:53:10;18.70;99.90
4922;DHT22;16625;53.624;10.106;2022-08-18T20:55:45;19.20;99.90
4922;DHT22;16625;53.624;10.106;2022-08-18T20:58:16;18.80;99.90
4922;DHT22;16625;53.624;10.106;2022-08-18T21:00:49;18.80;99.90
4922;DHT22;16625;53.624;10.106;2022-08-18T21:03:18;18.80;99.90
4922;DHT22;16625;53.624;10.106;2022-08-18T21:05:48;18.70;99.90
4922;DHT22;16625;53.624;10.106;2022-08-18T21:08:24;18.70;99.90
4922;DHT22;16625;53.624;10.106;2022-08-18T21:10:54;18.70;99.90
4922;DHT22;16625;53.624;10.106;2022-08-18T21:13:31;18.70;99.90
4922;DHT22;16625;53.624;10.106;2022-08-18T21:15:59;18.70;99.90
4922;DHT22;16625;53.624;10.106;2022-08-18T21:18:31;18.70;99.90
4922;DHT22;16625;53.624;10.106;2022-08-18T21:27:57;18.80;99.90
4922;DHT22;16625;53.624;10.106;2022-08-18T21:31:02;18.70;99.90
4922;DHT22;16625;53.624;10.106;2022-08-18T21:34:08;18.90;99.90
4922;DHT22;16625;53.624;10.106;2022-08-18T21:37:14;19.00;99.90
4922;DHT22;16625;53.624;10.106;2022-08-18T21:40:00;19.10;99.90
4922;DHT22;16625;53.624;10.106;2022-08-18T21:43:08;19.10;99.90
4922;DHT22;16625;53.624;10.106;2022-08-18T21:46:26;19.10;99.90
4922;DHT22;16625;53.624;10.106;2022-08-18T21:49:05;19.10;99.90
4922;DHT22;16625;53.624;10.106;2022-08-18T21:52:27;19.00;99.90
4922;DHT22;16625;53.624;10.106;2022-08-18T21:55:34;18.90;99.90
4922;DHT22;16625;53.624;10.106;2022-08-18T22:11:19;18.80;99.90
4922;DHT22;16625;53.624;10.106;2022-08-18T22:14:23;18.80;99.90
4922;DHT22;16625;53.624;10.106;2022-08-18T22:16:58;18.70;99.90
4922;DHT22;16625;53.624;10.106;2022-08-18T22:19:45;18.70;99.90
4922;DHT22;16625;53.624;10.106;2022-08-18T22:22:16;18.70;99.90
4922;DHT22;16625;53.624;10.106;2022-08-18T22:24:57;18.70;99.90
4922;DHT22;16625;53.624;10.106;2022-08-18T22:27:26;18.70;99.90
4922;DHT22;16625;53.624;10.106;2022-08-18T22:29:55;18.70;99.90
4922;DHT22;16625;53.624;10.106;2022-08-18T22:32:26;18.60;99.90
4922;DHT22;16625;53.624;10.106;2022-08-18T22:34:52;19.30;99.90